createdAt,value
2023-05-08T00:01:40.127Z,62.3418
2023-05-08T00:03:40.518Z,61.86328
2023-05-08T00:05:13.510Z,62.28223
2023-05-08T00:07:13.481Z,62.40137
2023-05-08T00:09:13.534Z,62.27637
2023-05-08T00:11:13.560Z,62.66211
2023-05-08T00:13:13.589Z,62.88184
2023-05-08T00:15:13.557Z,62.87402
2023-05-08T00:17:13.461Z,62.86719
2023-05-08T00:20:32.759Z,62.73633
2023-05-08T00:22:32.680Z,63.19336
2023-05-08T00:24:32.666Z,62.97656
2023-05-08T00:26:32.862Z,63.25098
2023-05-08T00:28:32.747Z,62.93457
2023-05-08T00:30:32.719Z,63.26367
2023-05-08T00:32:32.851Z,63.50781
2023-05-08T00:35:51.938Z,64.12793
2023-05-08T00:37:51.975Z,64.01367
2023-05-08T00:39:51.878Z,63.74805
2023-05-08T00:41:51.875Z,63.90527
2023-05-08T00:43:52.024Z,63.69824
2023-05-08T00:45:52.015Z,64.0752
2023-05-08T00:47:52.029Z,63.59277
2023-05-08T00:50:20.571Z,64.13086
2023-05-08T00:52:20.560Z,64.21875
2023-05-08T00:54:20.577Z,63.9873
2023-05-08T00:56:20.571Z,63.82129
2023-05-08T00:58:20.565Z,64.02734
2023-05-08T01:00:20.594Z,63.78906
2023-05-08T01:02:20.873Z,64.19336
2023-05-08T01:04:20.694Z,64.41113
2023-05-08T01:05:26.020Z,64.2627
2023-05-08T01:07:26.065Z,64.30176
2023-05-08T01:09:26.063Z,63.95508
2023-05-08T01:11:26.148Z,64.28906
2023-05-08T01:13:26.127Z,64.78809
2023-05-08T01:15:26.035Z,64.35156
2023-05-08T01:17:26.136Z,64.9707
2023-05-08T01:19:25.975Z,64.69141
2023-05-08T01:20:34.471Z,64.76953
2023-05-08T01:22:34.375Z,65.08203
2023-05-08T01:24:34.467Z,64.82617
2023-05-08T01:26:34.529Z,64.74121
2023-05-08T01:28:34.397Z,65.02832
2023-05-08T01:30:34.349Z,65.28516
2023-05-08T01:32:34.573Z,65.24805
2023-05-08T01:34:34.447Z,65.47461
2023-05-08T01:36:26.991Z,65.49805
2023-05-08T01:38:27.034Z,65.7168
2023-05-08T01:40:27.110Z,65.68457
2023-05-08T01:42:27.032Z,65.21289
2023-05-08T01:44:27.003Z,65.68359
2023-05-08T01:46:27.059Z,66.73242
2023-05-08T01:48:27.087Z,66.58984
2023-05-08T01:51:16.810Z,65.97168
2023-05-08T01:53:16.776Z,66.68066
2023-05-08T01:55:16.830Z,66.44824
2023-05-08T01:57:16.807Z,65.96191
2023-05-08T01:59:16.710Z,66.59375
2023-05-08T02:01:17.030Z,67.1123
2023-05-08T02:03:16.930Z,66.13477
2023-05-08T02:06:05.924Z,65.92773
2023-05-08T02:08:05.829Z,66.31934
2023-05-08T02:10:05.898Z,66.12598
2023-05-08T02:12:05.851Z,66.32129
2023-05-08T02:14:06.180Z,66.06934
2023-05-08T02:16:06.325Z,65.98535
2023-05-08T02:18:05.880Z,66.15039
2023-05-08T02:20:05.840Z,66.11426
2023-05-08T02:21:46.818Z,66.13672
2023-05-08T02:23:46.664Z,66.07813
2023-05-08T02:25:46.723Z,66.19238
2023-05-08T02:27:46.726Z,66.50586
2023-05-08T02:29:46.738Z,66.47852
2023-05-08T02:31:46.801Z,66.67188
2023-05-08T02:33:46.642Z,66.56738
2023-05-08T02:37:20.530Z,66.69043
2023-05-08T02:39:20.562Z,67.22949
2023-05-08T02:41:20.561Z,66.7041
2023-05-08T02:43:20.432Z,67.4209
2023-05-08T02:45:20.554Z,67.40332
2023-05-08T02:47:20.492Z,67.69629
2023-05-08T02:49:20.538Z,66.73828
2023-05-08T02:52:00.584Z,66.69727
2023-05-08T02:54:00.445Z,66.56152
2023-05-08T02:56:00.413Z,66.63477
2023-05-08T02:58:00.451Z,66.64063
2023-05-08T03:00:00.717Z,66.88965
2023-05-08T03:02:00.435Z,66.64063
2023-05-08T03:04:00.685Z,66.51465
2023-05-08T03:06:51.338Z,66.58105
2023-05-08T03:08:51.400Z,66.77246
2023-05-08T03:10:51.408Z,66.74609
2023-05-08T03:12:52.487Z,66.89551
2023-05-08T03:14:51.413Z,66.55371
2023-05-08T03:16:51.353Z,66.53613
2023-05-08T03:18:51.351Z,66.86035
2023-05-08T03:20:51.345Z,66.86816
2023-05-08T03:22:06.360Z,67.00586
2023-05-08T03:24:06.384Z,66.38867
2023-05-08T03:26:06.474Z,66.88281
2023-05-08T03:28:06.441Z,67.08203
2023-05-08T03:30:06.436Z,66.74902
2023-05-08T03:32:06.375Z,66.04688
2023-05-08T03:34:06.405Z,65.41113
2023-05-08T03:37:42.698Z,61.84375
2023-05-08T03:39:42.601Z,59.35938
2023-05-08T03:41:42.482Z,57.06445
2023-05-08T03:43:42.798Z,56.29199
2023-05-08T03:45:42.624Z,58.15137
2023-05-08T03:47:44.404Z,60.0127
2023-05-08T03:49:42.608Z,60.21387
2023-05-08T03:52:39.893Z,61.55664
2023-05-08T03:54:39.982Z,62.53711
2023-05-08T03:56:39.900Z,63.06641
2023-05-08T03:58:40.279Z,62.68359
2023-05-08T04:00:40.191Z,62.83105
2023-05-08T04:02:42.616Z,62.5752
2023-05-08T04:04:40.018Z,61.86816
2023-05-08T04:07:37.946Z,61.38281
2023-05-08T04:09:38.337Z,61.28809
2023-05-08T04:11:37.984Z,60.96777
2023-05-08T04:13:37.886Z,59.70898
2023-05-08T04:15:38.030Z,56.85547
2023-05-08T04:17:37.991Z,58.52051
2023-05-08T04:19:37.969Z,58.86621
2023-05-08T04:23:05.487Z,57.93359
2023-05-08T04:25:05.456Z,58.4082
2023-05-08T04:27:05.545Z,58.26465
2023-05-08T04:29:05.476Z,59.11621
2023-05-08T04:31:05.702Z,58.39551
2023-05-08T04:33:05.528Z,57.4873
2023-05-08T04:35:05.516Z,55.01074
2023-05-08T04:38:12.202Z,55.08594
2023-05-08T04:40:12.178Z,55.20605
2023-05-08T04:42:12.139Z,53.35059
2023-05-08T04:44:12.201Z,52.39941
2023-05-08T04:46:12.326Z,49.94238
2023-05-08T04:48:12.575Z,48.63379
2023-05-08T04:50:12.285Z,49.73438
2023-05-08T04:53:06.317Z,50.66211
2023-05-08T04:55:06.249Z,50.02344
2023-05-08T04:57:06.224Z,51.71582
2023-05-08T04:59:06.220Z,51.27539
2023-05-08T05:01:06.305Z,51.38672
2023-05-08T05:03:06.400Z,51.9082
2023-05-08T05:05:06.311Z,52.5957
2023-05-08T05:08:31.834Z,52.80664
2023-05-08T05:10:31.879Z,55.61719
2023-05-08T05:12:31.824Z,52.72266
2023-05-08T05:14:31.852Z,53.68262
2023-05-08T05:16:31.892Z,54.61914
2023-05-08T05:18:31.861Z,54.77246
2023-05-08T05:20:31.979Z,54.15918
2023-05-08T05:24:07.024Z,54.98047
2023-05-08T05:26:07.123Z,54.56934
2023-05-08T05:28:07.196Z,54.33984
2023-05-08T05:30:07.072Z,55.00684
2023-05-08T05:32:07.023Z,53.5791
2023-05-08T05:34:07.288Z,54.6709
2023-05-08T05:36:07.129Z,53.97461
2023-05-08T05:39:05.789Z,53.85254
2023-05-08T05:41:05.921Z,55.68262
2023-05-08T05:43:05.771Z,53.70898
2023-05-08T05:45:05.688Z,54.32422
2023-05-08T05:47:06.067Z,55.05469
2023-05-08T05:49:05.725Z,53.13281
2023-05-08T05:51:05.828Z,51.71582
2023-05-08T05:53:39.062Z,53.21777
2023-05-08T05:55:39.002Z,53.68164
2023-05-08T05:57:39.096Z,52.38965
2023-05-08T05:59:39.055Z,53.13965
2023-05-08T06:01:39.162Z,53.93164
2023-05-08T06:03:39.314Z,52.52734
2023-05-08T06:05:39.034Z,55.07813
2023-05-08T06:07:39.094Z,54.41211
2023-05-08T06:09:03.410Z,53.17578
2023-05-08T06:11:03.364Z,54.40137
2023-05-08T06:13:03.703Z,52.56152
2023-05-08T06:15:03.554Z,50.89453
2023-05-08T06:17:03.436Z,51.77539
2023-05-08T06:19:03.420Z,51.03809
2023-05-08T06:21:03.510Z,52.70117
2023-05-08T06:24:30.843Z,48.78516
2023-05-08T06:26:30.783Z,50.45215
2023-05-08T06:28:30.681Z,48.29883
2023-05-08T06:30:30.740Z,50.52832
2023-05-08T06:32:30.723Z,50.37109
2023-05-08T06:34:30.732Z,49.96289
2023-05-08T06:36:30.819Z,50.50195
2023-05-08T06:40:12.374Z,51.07227
2023-05-08T06:41:59.472Z,49.85742
2023-05-08T06:43:59.483Z,49.08008
2023-05-08T06:45:59.577Z,49.30664
2023-05-08T06:47:59.615Z,47.13477
2023-05-08T06:49:59.440Z,48.09961
2023-05-08T06:51:59.411Z,48.01074
2023-05-08T06:55:07.977Z,51.66406
2023-05-08T06:57:07.911Z,50.70215
2023-05-08T06:59:09.440Z,49.56543
2023-05-08T07:01:07.976Z,49.0293
2023-05-08T07:03:07.999Z,47.98633
2023-05-08T07:05:08.383Z,48.90137
2023-05-08T07:07:07.719Z,49.26074
2023-05-08T07:10:11.383Z,49.45117
2023-05-08T07:12:11.437Z,50.15234
2023-05-08T07:14:11.448Z,49.03711
2023-05-08T07:16:11.541Z,49.57129
2023-05-08T07:18:11.445Z,48.77832
2023-05-08T07:20:11.354Z,49.00293
2023-05-08T07:22:11.488Z,50.03809
2023-05-08T07:24:46.249Z,50.76758
2023-05-08T07:26:46.331Z,50.68066
2023-05-08T07:28:46.349Z,50.9375
2023-05-08T07:30:46.293Z,51.37793
2023-05-08T07:32:46.326Z,51.81934
2023-05-08T07:34:46.298Z,51.40527
2023-05-08T07:36:46.198Z,51.55273
2023-05-08T07:39:59.558Z,52.81348
2023-05-08T07:41:59.587Z,51.26465
2023-05-08T07:43:59.526Z,52.40137
2023-05-08T07:45:59.550Z,50.04199
2023-05-08T07:47:59.555Z,50.27832
2023-05-08T07:49:59.742Z,51.8877
2023-05-08T07:51:59.444Z,51.79199
2023-05-08T07:55:33.868Z,49.23047
2023-05-08T07:57:33.975Z,50.96387
2023-05-08T07:59:33.965Z,48.89258
2023-05-08T08:01:33.850Z,50.02539
2023-05-08T08:03:34.278Z,49.85742
2023-05-08T08:05:33.931Z,50.87207
2023-05-08T08:07:34.055Z,49.46484
2023-05-08T08:10:33.729Z,49.25781
2023-05-08T08:12:34.018Z,48.7959
2023-05-08T08:14:33.848Z,49.71094
2023-05-08T08:16:33.984Z,50.35645
2023-05-08T08:18:33.877Z,50.97363
2023-05-08T08:20:33.797Z,51.19531
2023-05-08T08:22:33.700Z,50.89844
2023-05-08T08:26:01.602Z,51.42773
2023-05-08T08:28:01.506Z,51.51172
2023-05-08T08:30:17.405Z,51.04785
2023-05-08T08:32:01.661Z,52.13867
2023-05-08T08:34:01.545Z,52.29199
2023-05-08T08:36:01.490Z,51.4043
2023-05-08T08:38:01.542Z,51.78711
2023-05-08T08:41:05.612Z,51.63477
2023-05-08T08:43:05.246Z,50.93848
2023-05-08T08:45:05.458Z,51.5293
2023-05-08T08:47:05.508Z,51.32324
2023-05-08T08:49:05.242Z,50.95898
2023-05-08T08:51:05.207Z,49.81055
2023-05-08T08:53:05.332Z,50.2373
2023-05-08T08:56:38.359Z,50.62402
2023-05-08T08:58:39.476Z,50.77441
2023-05-08T09:00:38.552Z,51.02539
2023-05-08T09:02:38.693Z,50.53613
2023-05-08T09:04:38.725Z,52.13867
2023-05-08T09:06:38.440Z,51.23242
2023-05-08T09:08:38.605Z,51.38184
2023-05-08T09:11:10.175Z,51.43848
2023-05-08T09:13:10.413Z,52.2832
2023-05-08T09:15:10.984Z,52.30957
2023-05-08T09:17:10.608Z,52.34277
2023-05-08T09:19:10.442Z,52.41016
2023-05-08T09:21:10.220Z,52.95313
2023-05-08T09:23:10.175Z,53.05176
2023-05-08T09:26:07.528Z,53.84961
2023-05-08T09:28:07.593Z,53.83594
2023-05-08T09:30:07.847Z,53.61914
2023-05-08T09:32:07.740Z,53.79883
2023-05-08T09:34:07.623Z,54.12988
2023-05-08T09:36:07.578Z,53.33789
2023-05-08T09:38:07.426Z,53.55957
2023-05-08T09:40:07.497Z,53.24512
2023-05-08T09:41:46.887Z,53.2832
2023-05-08T09:43:46.911Z,52.64063
2023-05-08T09:45:47.094Z,51.4502
2023-05-08T09:47:46.960Z,52.27539
2023-05-08T09:49:47.043Z,52.40137
2023-05-08T09:51:47.025Z,51.58398
2023-05-08T09:53:46.916Z,51.19824
2023-05-08T09:56:23.063Z,50.59668
2023-05-08T09:58:23.251Z,50.60156
2023-05-08T10:00:23.149Z,50.69824
2023-05-08T10:02:23.153Z,50.18555
2023-05-08T10:04:23.098Z,48.04199
2023-05-08T10:06:23.258Z,49.88477
2023-05-08T10:08:23.413Z,49.07031
2023-05-08T10:10:23.348Z,50.02051
2023-05-08T10:12:16.466Z,48.33594
2023-05-08T10:14:16.535Z,47.00098
2023-05-08T10:16:16.659Z,46.64453
2023-05-08T10:18:16.450Z,47.87598
2023-05-08T10:20:16.502Z,47.94531
2023-05-08T10:22:16.572Z,47.37695
2023-05-08T10:24:16.596Z,46.17383
2023-05-08T10:27:06.115Z,49.62207
2023-05-08T10:28:47.520Z,46.59668
2023-05-08T10:30:47.465Z,48.06934
2023-05-08T10:32:47.498Z,47.77441
2023-05-08T10:34:47.365Z,49.11816
2023-05-08T10:36:47.396Z,47.00684
2023-05-08T10:38:47.488Z,49.46387
2023-05-08T10:40:47.648Z,47.78027
2023-05-08T10:42:34.810Z,47.25488
2023-05-08T10:44:34.830Z,46.70215
2023-05-08T10:46:34.833Z,47.5752
2023-05-08T10:48:34.863Z,47.69434
2023-05-08T10:50:34.666Z,47.51855
2023-05-08T10:52:34.831Z,46.8623
2023-05-08T10:54:34.811Z,46.68652
2023-05-08T10:57:22.268Z,46.35254
2023-05-08T10:59:22.339Z,44.54199
2023-05-08T11:01:22.182Z,44.55273
2023-05-08T11:03:32.947Z,45.83203
2023-05-08T11:05:22.173Z,44.19629
2023-05-08T11:07:22.051Z,44.41504
2023-05-08T11:09:22.369Z,46.97754
2023-05-08T11:12:20.129Z,44.60645
2023-05-08T11:14:20.276Z,44.39648
2023-05-08T11:16:20.249Z,45.79492
2023-05-08T11:18:20.186Z,43.75781
2023-05-08T11:20:20.172Z,45.75098
2023-05-08T11:22:20.174Z,42.54785
2023-05-08T11:24:20.412Z,41.55566
2023-05-08T11:27:24.903Z,49.79688
2023-05-08T11:29:24.687Z,45.01367
2023-05-08T11:31:25.080Z,44.95313
2023-05-08T11:33:24.730Z,45.36523
2023-05-08T11:35:24.638Z,48.22266
2023-05-08T11:37:24.757Z,44.38574
2023-05-08T11:39:24.802Z,42.81738
2023-05-08T11:41:24.819Z,43.88965
2023-05-08T11:43:13.347Z,42.61133
2023-05-08T11:45:13.324Z,40.85059
2023-05-08T11:47:13.490Z,41.56055
2023-05-08T11:49:13.524Z,41.2793
2023-05-08T11:51:13.238Z,42.41797
2023-05-08T11:53:13.190Z,41.2041
2023-05-08T11:55:13.414Z,43.42383
2023-05-08T11:58:10.766Z,43.16992
2023-05-08T12:00:11.420Z,42.81641
2023-05-08T12:02:11.036Z,44.55566
2023-05-08T12:04:11.392Z,41.75781
2023-05-08T12:06:10.881Z,40.24316
2023-05-08T12:08:10.782Z,41.58008
2023-05-08T12:10:11.090Z,39.74414
2023-05-08T12:13:03.479Z,42.22559
2023-05-08T12:15:03.423Z,39.74121
2023-05-08T12:17:03.673Z,39.50488
2023-05-08T12:19:03.412Z,36.89648
2023-05-08T12:21:03.333Z,37.16602
2023-05-08T12:23:03.331Z,38.06738
2023-05-08T12:25:03.319Z,37.79199
2023-05-08T12:28:56.354Z,37.2373
2023-05-08T12:30:55.958Z,35.82129
2023-05-08T12:32:56.118Z,34.17285
2023-05-08T12:34:56.137Z,32.0127
2023-05-08T12:36:56.008Z,33.85059
2023-05-08T12:38:55.936Z,34.63281
2023-05-08T12:40:55.989Z,33.63184
2023-05-08T12:43:45.802Z,36.22949
2023-05-08T12:45:45.964Z,35.33496
2023-05-08T12:47:45.984Z,33.51074
2023-05-08T12:49:46.314Z,35.59082
2023-05-08T12:51:45.983Z,34.45508
2023-05-08T12:53:45.859Z,33.93066
2023-05-08T12:55:45.850Z,33.87109
2023-05-08T12:58:30.611Z,34.25879
2023-05-08T13:00:30.668Z,34.80762
2023-05-08T13:02:30.999Z,36.18262
2023-05-08T13:04:30.808Z,37.75
2023-05-08T13:06:30.744Z,37.34082
2023-05-08T13:15:45.989Z,37.45313
2023-05-08T13:17:45.904Z,38.87305
2023-05-08T13:19:45.874Z,37.54199
2023-05-08T13:21:45.993Z,37.9707
2023-05-08T13:23:45.927Z,38.84473
2023-05-08T13:25:45.852Z,39.36523
2023-05-08T13:28:56.918Z,42.66113
2023-05-08T13:30:56.558Z,44.59277
2023-05-08T13:32:56.434Z,45.67383
2023-05-08T13:35:01.040Z,46.85254
2023-05-08T13:36:56.501Z,47.71777
2023-05-08T13:38:56.284Z,48.7168
2023-05-08T13:40:56.278Z,49.29004
2023-05-08T13:44:45.276Z,50.37402
2023-05-08T13:46:45.364Z,50.5752
2023-05-08T13:48:45.275Z,50.99219
2023-05-08T13:50:45.314Z,52.04492
2023-05-08T13:52:45.362Z,51.67676
2023-05-08T13:54:45.278Z,52.43066
2023-05-08T13:56:45.295Z,54.61816
2023-05-08T13:59:52.898Z,56.54004
2023-05-08T14:01:53.080Z,55.11426
2023-05-08T14:03:53.154Z,55.73535
2023-05-08T14:05:52.968Z,54.97754
2023-05-08T14:07:53.091Z,55.97754
2023-05-08T14:09:52.916Z,56.75098
2023-05-08T14:11:53.317Z,56.83105
2023-05-08T14:14:36.186Z,57.24121
2023-05-08T14:16:36.336Z,54.17285
2023-05-08T14:18:36.461Z,55.92871
2023-05-08T14:20:36.360Z,54.91504
2023-05-08T14:22:36.407Z,57.50195
2023-05-08T14:24:36.368Z,58.36133
2023-05-08T14:26:36.129Z,61.30957
2023-05-08T14:29:57.654Z,59.22461
2023-05-08T14:31:58.048Z,58.5332
2023-05-08T14:33:57.891Z,58.44531
2023-05-08T14:35:57.907Z,57.0293
2023-05-08T14:37:57.760Z,58.31738
2023-05-08T14:39:58.017Z,58.23145
2023-05-08T14:45:31.961Z,57.75879
2023-05-08T14:47:32.080Z,56.4248
2023-05-08T14:49:38.897Z,58.60547
2023-05-08T14:51:31.967Z,56.99023
2023-05-08T14:53:32.256Z,57.35449
2023-05-08T14:55:32.660Z,57.72559
2023-05-08T14:57:31.870Z,58.61523
2023-05-08T15:00:34.775Z,57.86426
2023-05-08T15:02:34.929Z,58.53125
2023-05-08T15:04:34.788Z,59.93164
2023-05-08T15:06:34.945Z,59.55664
2023-05-08T15:08:34.836Z,60.19043
2023-05-08T15:10:35.036Z,60.21875
2023-05-08T15:12:34.778Z,60.25781
2023-05-08T15:15:36.883Z,60.29297
2023-05-08T15:17:37.031Z,60.29785
2023-05-08T15:19:36.954Z,60.56055
2023-05-08T15:21:37.017Z,60.29785
2023-05-08T15:23:36.869Z,60.70801
2023-05-08T15:25:36.804Z,60.33398
2023-05-08T15:27:37.247Z,60.10449
2023-05-08T15:30:28.183Z,60.6748
2023-05-08T15:32:28.206Z,60.88477
2023-05-08T15:34:33.089Z,60.40039
2023-05-08T15:36:28.871Z,61.08398
2023-05-08T15:38:28.293Z,60.78906
2023-05-08T15:40:28.303Z,60.76758
2023-05-08T15:42:28.275Z,60.00098
2023-05-08T15:45:26.096Z,60.2666
2023-05-08T15:47:26.270Z,60.16797
2023-05-08T15:49:25.906Z,60.33887
2023-05-08T15:51:26.010Z,60.00195
2023-05-08T15:53:26.138Z,61.47852
2023-05-08T15:55:25.966Z,60.68848
2023-05-08T15:57:25.834Z,60.28418
2023-05-08T15:59:25.918Z,61.03711
2023-05-08T16:00:45.784Z,61.45801
2023-05-08T16:02:43.828Z,61.12695
2023-05-08T16:04:43.731Z,60.85449
2023-05-08T16:06:43.775Z,61.12891
2023-05-08T16:08:43.608Z,60.49023
2023-05-08T16:10:44.096Z,60.89355
2023-05-08T16:12:43.714Z,61.5918
2023-05-08T16:15:44.149Z,62.0625
2023-05-08T16:17:44.078Z,61.67285
2023-05-08T16:19:44.061Z,61.16504
2023-05-08T16:21:43.953Z,61.07617
2023-05-08T16:23:44.033Z,60.8418
2023-05-08T16:25:44.049Z,60.50684
2023-05-08T16:27:44.128Z,60.74512
2023-05-08T16:29:44.111Z,60.45313
2023-05-08T16:31:34.296Z,60.36816
2023-05-08T16:33:34.104Z,60.7207
2023-05-08T16:35:34.294Z,60.09082
2023-05-08T16:37:35.583Z,60.47461
2023-05-08T16:39:34.014Z,60.53613
2023-05-08T16:41:34.093Z,60.93359
2023-05-08T16:43:34.211Z,60.51855
2023-05-08T16:46:14.340Z,60.28516
2023-05-08T16:48:14.295Z,60.67676
2023-05-08T16:50:14.435Z,59.84766
2023-05-08T16:52:14.210Z,59.81543
2023-05-08T16:54:14.179Z,59.75098
2023-05-08T16:56:14.318Z,61.2959
2023-05-08T16:58:14.240Z,61.02637
2023-05-08T17:01:55.641Z,60.38867
2023-05-08T17:03:55.323Z,59.79492
2023-05-08T17:05:55.379Z,60.79883
2023-05-08T17:07:55.388Z,60.39941
2023-05-08T17:09:55.424Z,60.45898
2023-05-08T17:11:55.330Z,60.45898
2023-05-08T17:13:55.239Z,60.49512
2023-05-08T17:16:27.098Z,60.46387
2023-05-08T17:18:27.338Z,61.21973
2023-05-08T17:20:27.157Z,60.83203
2023-05-08T17:22:27.245Z,60.83203
2023-05-08T17:24:27.112Z,61.04785
2023-05-08T17:26:27.160Z,60.99707
2023-05-08T17:28:27.007Z,61.03906
2023-05-08T17:31:47.215Z,61.82617
2023-05-08T17:33:47.117Z,61.9209
2023-05-08T17:35:46.964Z,61.96289
2023-05-08T17:37:47.167Z,62.05176
2023-05-08T17:39:47.070Z,62.27734
2023-05-08T17:41:47.085Z,62.26074
2023-05-08T17:43:47.037Z,62.34961
2023-05-08T17:47:29.725Z,63.41504
2023-05-08T17:49:29.737Z,63.34473
2023-05-08T17:51:29.604Z,62.62793
2023-05-08T17:53:29.820Z,63.11328
2023-05-08T17:55:29.599Z,63.62012
2023-05-08T17:57:29.649Z,63.70508
2023-05-08T17:59:29.659Z,63.77734
2023-05-08T18:02:04.576Z,63.41504
2023-05-08T18:04:04.419Z,63.53809
2023-05-08T18:06:04.606Z,63.61035
2023-05-08T18:08:04.466Z,63.48535
2023-05-08T18:10:04.605Z,63.66309
2023-05-08T18:12:04.381Z,64.73633
2023-05-08T18:14:04.426Z,64.70996
2023-05-08T18:16:57.091Z,64.85742
2023-05-08T18:18:57.169Z,64.78906
2023-05-08T18:20:57.337Z,64.48535
2023-05-08T18:22:57.152Z,64.36914
2023-05-08T18:24:56.853Z,65.20898
2023-05-08T18:26:56.978Z,66.39063
2023-05-08T18:28:56.868Z,66.28711
2023-05-08T18:30:57.003Z,65.34766
2023-05-08T18:33:02.124Z,65.625
2023-05-08T18:35:02.082Z,65.7998
2023-05-08T18:37:02.125Z,65.44629
2023-05-08T18:39:02.299Z,65.09375
2023-05-08T18:41:02.272Z,65.67773
2023-05-08T18:43:02.314Z,65.24512
2023-05-08T18:45:02.106Z,64.66992
2023-05-08T18:47:16.982Z,64.43945
2023-05-08T18:49:19.247Z,64.09473
2023-05-08T18:51:16.904Z,64.2002
2023-05-08T18:53:17.027Z,64.06934
2023-05-08T18:55:17.140Z,63.82813
2023-05-08T18:57:16.876Z,63.97266
2023-05-08T18:59:17.005Z,63.88477
2023-05-08T19:01:17.081Z,63.69043
2023-05-08T19:02:41.827Z,63.89551
2023-05-08T19:04:41.752Z,63.98633
2023-05-08T19:06:41.735Z,63.88574
2023-05-08T19:08:41.770Z,63.99512
2023-05-08T19:10:41.938Z,64.11914
2023-05-08T19:12:41.938Z,64.31934
2023-05-08T19:14:42.103Z,64.44824
2023-05-08T19:18:05.929Z,64.30078
2023-05-08T19:20:05.814Z,63.9082
2023-05-08T19:22:05.717Z,63.99512
2023-05-08T19:24:06.007Z,64.12305
2023-05-08T19:26:05.943Z,64.11523
2023-05-08T19:28:05.771Z,64.39063
2023-05-08T19:30:06.268Z,63.85059
2023-05-08T19:33:15.691Z,63.49121
2023-05-08T19:35:15.758Z,63.91992
2023-05-08T19:37:15.758Z,64.30957
2023-05-08T19:39:15.662Z,63.9502
2023-05-08T19:41:15.818Z,64.20215
2023-05-08T19:43:15.641Z,64.3584
2023-05-08T19:45:15.799Z,64.13574
2023-05-08T19:48:51.394Z,64.24023
2023-05-08T19:50:55.324Z,64.05078
2023-05-08T19:52:51.756Z,64.18164
2023-05-08T19:54:51.398Z,64.5498
2023-05-08T19:56:51.829Z,64.78027
2023-05-08T19:58:51.402Z,64.47559
2023-05-08T20:00:52.370Z,64.25586
2023-05-08T20:03:49.992Z,64.09375
2023-05-08T20:05:49.865Z,64.19141
2023-05-08T20:07:49.774Z,64.41602
2023-05-08T20:09:49.901Z,64.58789
2023-05-08T20:11:49.836Z,64.60938
2023-05-08T20:13:50.002Z,64.42871
2023-05-08T20:15:49.730Z,64.68262
2023-05-08T20:18:40.164Z,64.74902
2023-05-08T20:20:40.072Z,64.43262
2023-05-08T20:22:40.095Z,64.67871
2023-05-08T20:24:40.026Z,65.32227
2023-05-08T20:26:40.054Z,65.43457
2023-05-08T20:28:40.194Z,65.20801
2023-05-08T20:30:40.420Z,65.04297
2023-05-08T20:33:44.109Z,64.97656
2023-05-08T20:35:44.002Z,65.02832
2023-05-08T20:37:43.992Z,65.42871
2023-05-08T20:39:44.113Z,65.31934
2023-05-08T20:41:44.008Z,65.49219
2023-05-08T20:43:44.121Z,65.3418
2023-05-08T20:45:44.288Z,64.90723
2023-05-08T20:49:06.249Z,65.22461
2023-05-08T20:51:06.279Z,65.59766
2023-05-08T20:53:06.151Z,65.35352
2023-05-08T20:55:06.193Z,65.49219
2023-05-08T20:57:06.053Z,65.44141
2023-05-08T20:59:06.140Z,65.36328
2023-05-08T21:01:06.577Z,65.37207
2023-05-08T21:04:31.793Z,64.8418
2023-05-08T21:06:31.608Z,65.10645
2023-05-08T21:08:31.648Z,65.58984
2023-05-08T21:10:31.731Z,65.80957
2023-05-08T21:12:31.530Z,65.6123
2023-05-08T21:14:31.826Z,66.02246
2023-05-08T21:16:32.120Z,66.12598
2023-05-08T21:19:43.528Z,65.85547
2023-05-08T21:21:43.524Z,65.49316
2023-05-08T21:23:43.399Z,65.62695
2023-05-08T21:25:43.305Z,65.75879
2023-05-08T21:27:43.464Z,66.30273
2023-05-08T21:29:45.489Z,65.98535
2023-05-08T21:31:43.621Z,66.16797
2023-05-08T21:34:13.295Z,66.01563
2023-05-08T21:36:13.478Z,65.98242
2023-05-08T21:38:13.438Z,66.27832
2023-05-08T21:40:13.352Z,65.56641
2023-05-08T21:42:13.345Z,65.68164
2023-05-08T21:44:13.395Z,65.71094
2023-05-08T21:46:13.404Z,66.02344
2023-05-08T21:48:13.374Z,66.0293
2023-05-08T21:49:40.864Z,66.08203
2023-05-08T21:51:41.132Z,66.00195
2023-05-08T21:53:40.881Z,65.8877
2023-05-08T21:55:40.928Z,66.14941
2023-05-08T21:57:40.718Z,65.98828
2023-05-08T21:59:40.904Z,66.6875
2023-05-08T22:01:40.976Z,66.3252
2023-05-08T22:04:48.926Z,66.19141
2023-05-08T22:06:48.829Z,66.51563
2023-05-08T22:08:48.742Z,66.75293
2023-05-08T22:10:48.722Z,66.82422
2023-05-08T22:12:48.786Z,67.11523
2023-05-08T22:14:48.705Z,66.95898
2023-05-08T22:16:48.700Z,67.35059
2023-05-08T22:20:35.794Z,67.20215
2023-05-08T22:22:35.814Z,67.40234
2023-05-08T22:24:35.710Z,67.41211
2023-05-08T22:26:35.588Z,67.3457
2023-05-08T22:28:35.551Z,67.01953
2023-05-08T22:30:35.595Z,67.53906
2023-05-08T22:32:35.640Z,67.71777
2023-05-08T22:35:02.765Z,67.62305
2023-05-08T22:37:03.059Z,67.44531
2023-05-08T22:39:02.946Z,67.68359
2023-05-08T22:41:03.017Z,67.74512
2023-05-08T22:43:02.881Z,68.23047
2023-05-08T22:45:02.764Z,68.14844
2023-05-08T22:47:02.947Z,67.85156
2023-05-08T22:50:26.572Z,68.45703
2023-05-08T22:52:26.674Z,68.45215
2023-05-08T22:54:26.733Z,68.1543
2023-05-08T22:56:26.512Z,68.31348
2023-05-08T22:58:26.552Z,68.08203
2023-05-08T23:00:26.516Z,67.63867
2023-05-08T23:02:26.678Z,67.67871
2023-05-08T23:05:47.001Z,67.35254
2023-05-08T23:07:47.143Z,67.2832
2023-05-08T23:09:47.115Z,67.36426
2023-05-08T23:11:47.080Z,67.59375
2023-05-08T23:13:47.019Z,67.6377
2023-05-08T23:15:47.074Z,67.56934
2023-05-08T23:17:47.119Z,67.43164
2023-05-08T23:20:29.962Z,67.08496
2023-05-08T23:22:29.658Z,66.91602
2023-05-08T23:24:29.860Z,67.14063
2023-05-08T23:26:29.630Z,66.94043
2023-05-08T23:28:29.661Z,67.01855
2023-05-08T23:30:29.654Z,67.20508
2023-05-08T23:32:29.764Z,66.82617
2023-05-08T23:34:29.616Z,66.9707
2023-05-08T23:36:18.715Z,67.26367
2023-05-08T23:38:18.908Z,67.36816
2023-05-08T23:40:18.838Z,67.33594
2023-05-08T23:42:18.844Z,67.10938
2023-05-08T23:44:18.809Z,66.99902
2023-05-08T23:46:18.827Z,66.88281
2023-05-08T23:48:18.667Z,66.6543
2023-05-08T23:51:04.256Z,66.76563
2023-05-08T23:53:04.171Z,66.69141
2023-05-08T23:55:04.221Z,67.14746
2023-05-08T23:57:04.544Z,67.20508
2023-05-08T23:59:04.449Z,67.39063
